»·PEaware :: N415CS KSBP-KAVX

N415CS :: KSBP-KAVX

FLIGHT INFORMATION

Flight Status: Arrived
Operator: Privately registered:
United States
More flights under this callsign
Pilot: Kyle A. (14988)
Aircraft: CESSNA 182 SKYLANE
(C182)
More flights by this aircraft type
Origin: KSBP San Luis Co Regl
United States
Destination: KAVX Catalina
United States
More flights between these airports :: More routes between these airports
Route: RZS VTU V208 SXC
File this flight plan on PilotEdge
Remarks: SBAN39
Altitude:
(Current/Filed)
7,000ft
Speed:
(Current/Filed)
130kts
Departed: 12-Jan-18 02:41 PM
Arrived: 12-Jan-18 03:52 PM
Distance/Time
Traveled:
156nm/1:11
Distance/Time
To Go:
Arrived

Flight Plot

Page will automatically refresh every two minutes.


Map Options




Map Legend


Flown Route
Filed Route
Departure Airport
Arrival Airport
Navaid (VOR, NDB)
Fix

Horizontal Profiles

Position Reports

Time Latitude Longitude Heading Altitude Ground
Speed
12-Jan-18 14:26 35.235272 -120.633688 213 215ft 0kts
12-Jan-18 14:27 35.235270 -120.633689 213 215ft 0kts
12-Jan-18 14:28 35.235268 -120.633691 213 215ft 0kts
12-Jan-18 14:29 35.235266 -120.633693 213 215ft 0kts
12-Jan-18 14:30 35.235264 -120.633694 213 215ft 0kts
12-Jan-18 14:31 35.235262 -120.633696 213 215ft 0kts
12-Jan-18 14:32 35.235259 -120.633698 213 215ft 0kts
12-Jan-18 14:33 35.235257 -120.633700 213 215ft 0kts
12-Jan-18 14:34 35.235255 -120.633701 213 215ft 0kts
12-Jan-18 14:35 35.235253 -120.633703 213 215ft 0kts
12-Jan-18 14:36 35.235251 -120.633705 213 215ft 0kts
12-Jan-18 14:37 35.235249 -120.633707 213 215ft 0kts
12-Jan-18 14:38 35.235246 -120.633708 213 215ft 0kts
12-Jan-18 14:39 35.235244 -120.633710 213 215ft 0kts
12-Jan-18 14:40 35.235242 -120.633712 213 215ft 0kts
12-Jan-18 14:41 35.235240 -120.633714 213 215ft 0kts
12-Jan-18 14:42 35.235238 -120.633715 213 215ft 0kts
12-Jan-18 14:43 35.235235 -120.633717 213 215ft 0kts
12-Jan-18 14:44 35.235115 -120.633814 213 215ft 7kts
12-Jan-18 14:45 35.233235 -120.632646 216 215ft 0kts
12-Jan-18 14:46 35.233233 -120.632648 216 215ft 0kts
12-Jan-18 14:47 35.235918 -120.638641 305 274ft 83kts
12-Jan-18 14:48 35.250020 -120.664100 304 1423ft 91kts
12-Jan-18 14:49 35.263730 -120.691204 304 2430ft 106kts
12-Jan-18 14:50 35.279600 -120.724369 303 3524ft 109kts
12-Jan-18 14:51 35.293594 -120.751843 308 4797ft 91kts
12-Jan-18 14:52 35.275665 -120.769585 145 6104ft 114kts
12-Jan-18 14:53 35.251885 -120.745517 135 7017ft 133kts
12-Jan-18 14:54 35.220085 -120.710397 133 6999ft 168kts
12-Jan-18 14:55 35.184913 -120.670504 133 6995ft 174kts
12-Jan-18 14:56 35.153656 -120.635256 134 6991ft 172kts
12-Jan-18 14:57 35.118665 -120.595884 133 7012ft 172kts
12-Jan-18 14:58 35.087762 -120.560667 135 6990ft 170kts
12-Jan-18 14:59 35.053579 -120.522244 132 6997ft 166kts
12-Jan-18 15:00 35.025452 -120.478566 118 6997ft 168kts
12-Jan-18 15:01 34.998885 -120.431626 129 6993ft 172kts
12-Jan-18 15:02 34.969599 -120.393106 127 6995ft 169kts
12-Jan-18 15:03 34.938432 -120.350919 127 7003ft 168kts
12-Jan-18 15:04 34.907060 -120.308220 127 6991ft 165kts
12-Jan-18 15:05 34.876652 -120.266767 127 6997ft 167kts
12-Jan-18 15:06 34.845230 -120.224147 127 6995ft 171kts
12-Jan-18 15:07 34.816877 -120.185601 127 6988ft 170kts
12-Jan-18 15:08 34.785383 -120.142870 127 6982ft 168kts
12-Jan-18 15:09 34.754004 -120.100372 126 7001ft 170kts
12-Jan-18 15:10 34.721996 -120.057106 127 7003ft 172kts
12-Jan-18 15:11 34.689875 -120.013639 127 6998ft 172kts
12-Jan-18 15:12 34.657782 -119.970381 127 6987ft 166kts
12-Jan-18 15:13 34.630720 -119.933841 127 6996ft 162kts
12-Jan-18 15:14 34.600274 -119.892807 127 6998ft 168kts
12-Jan-18 15:15 34.568475 -119.850089 127 6974ft 166kts
12-Jan-18 15:16 34.537862 -119.809012 127 6981ft 163kts
12-Jan-18 15:17 34.507543 -119.767669 119 6991ft 161kts
12-Jan-18 15:18 34.483254 -119.722387 118 7000ft 160kts
12-Jan-18 15:19 34.458817 -119.677341 118 7001ft 161kts
12-Jan-18 15:20 34.434119 -119.631806 118 7010ft 163kts
12-Jan-18 15:21 34.409000 -119.585677 118 6999ft 162kts
12-Jan-18 15:22 34.383992 -119.539752 118 7006ft 163kts
12-Jan-18 15:23 34.361732 -119.498919 118 7008ft 164kts
12-Jan-18 15:24 34.340517 -119.460042 118 7009ft 164kts
12-Jan-18 15:25 34.315296 -119.413878 118 7010ft 164kts
12-Jan-18 15:26 34.290122 -119.367859 118 7008ft 164kts
12-Jan-18 15:27 34.264938 -119.321882 118 7005ft 164kts
12-Jan-18 15:28 34.239964 -119.276345 118 7002ft 164kts
12-Jan-18 15:29 34.217173 -119.234796 118 7001ft 172kts
12-Jan-18 15:30 34.190853 -119.186903 118 7000ft 173kts
12-Jan-18 15:31 34.164059 -119.138266 118 7001ft 173kts
12-Jan-18 15:32 34.137370 -119.089862 118 7007ft 174kts
12-Jan-18 15:33 34.104979 -119.048161 168 6994ft 174kts
12-Jan-18 15:34 34.057432 -119.043941 175 7012ft 171kts
12-Jan-18 15:35 34.009860 -119.038538 175 7010ft 171kts
12-Jan-18 15:36 33.962350 -119.033493 176 7011ft 172kts
12-Jan-18 15:37 33.914688 -119.028492 176 7011ft 172kts
12-Jan-18 15:38 33.866871 -119.023490 176 7011ft 172kts
12-Jan-18 15:39 33.819198 -119.018508 176 7011ft 172kts
12-Jan-18 15:40 33.777952 -118.997136 120 7019ft 166kts
12-Jan-18 15:41 33.748417 -118.953850 125 7022ft 168kts
12-Jan-18 15:42 33.718303 -118.910674 125 7021ft 168kts
12-Jan-18 15:43 33.688263 -118.867561 125 6160ft 163kts
12-Jan-18 15:44 33.659087 -118.825592 126 5190ft 170kts
12-Jan-18 15:45 33.627851 -118.780757 127 4216ft 175kts
12-Jan-18 15:46 33.601932 -118.743610 127 4002ft 157kts
12-Jan-18 15:47 33.574096 -118.703714 127 4005ft 155kts
12-Jan-18 15:48 33.546179 -118.663764 127 4009ft 155kts
12-Jan-18 15:49 33.518449 -118.624136 127 4009ft 154kts
12-Jan-18 15:50 33.491037 -118.585000 127 4005ft 153kts
12-Jan-18 15:51 33.463339 -118.545483 127 4014ft 160kts
12-Jan-18 15:52 33.437991 -118.509395 127 3942ft 157kts
12-Jan-18 15:53 33.417788 -118.468217 65 3102ft 131kts
12-Jan-18 15:54 33.437178 -118.433211 52 2616ft 129kts
12-Jan-18 15:55 33.447231 -118.397407 127 2444ft 125kts
12-Jan-18 15:56 33.421437 -118.376855 154 2194ft 97kts
12-Jan-18 15:57 33.411716 -118.400274 268 1979ft 83kts
12-Jan-18 15:58 33.404100 -118.417213 182 1605ft 9kts
12-Jan-18 15:59 33.403490 -118.415332 337 1605ft 0kts
12-Jan-18 16:00 33.403384 -118.415273 326 1605ft 0kts
12-Jan-18 16:01 33.403384 -118.415273 326 1605ft 0kts
12-Jan-18 16:02 33.403384 -118.415273 326 1605ft 0kts
12-Jan-18 16:03 33.403384 -118.415273 326 1605ft 0kts
12-Jan-18 16:04 33.403384 -118.415273 326 1605ft 0kts
12-Jan-18 16:05 33.403384 -118.415273 326 1605ft 0kts
12-Jan-18 16:06 33.403384 -118.415273 326 1605ft 0kts
12-Jan-18 16:07 33.403384 -118.415273 326 1605ft 0kts
12-Jan-18 16:08 33.403384 -118.415273 326 1605ft 0kts
12-Jan-18 16:09 33.403384 -118.415273 326 1605ft 0kts
12-Jan-18 16:10 33.403384 -118.415273 326 1605ft 0kts
12-Jan-18 16:11 33.403384 -118.415273 326 1605ft 0kts
12-Jan-18 16:12 33.403384 -118.415273 326 1605ft 0kts

Navigation Log

Ident Type
1. KSBP Airport
2. RZS Navaid
3. VTU Navaid
4. WEEZL Fix
5. SXC Navaid
6. KAVX Airport